Time;durP1;ratioP1;P1;durP2;ratioP2;P2;SDS_P1;SDS_P2;PMS_P1;PMS_P2;Temp;Humidity;BMP_temperature;BMP_pressure;BME280_temperature;BME280_humidity;BME280_pressure;Samples;Min_cycle;Max_cycle;Signal;HPM_P1;HPM_P2
2022/10/11 00:02:05;;;;;;;5.67;1.90;;;13.20;99.90;;;;;;5110896;28;20221;-70
2022/10/11 00:04:32;;;;;;;5.83;2.23;;;13.10;99.90;;;;;;5118409;27;20201;-70
2022/10/11 00:07:00;;;;;;;3.27;1.50;;;13.10;99.90;;;;;;5111361;27;20217;-70
2022/10/11 00:09:27;;;;;;;5.47;1.87;;;13.10;99.90;;;;;;5111085;27;20233;-70
2022/10/11 00:11:55;;;;;;;6.33;1.83;;;13.10;99.90;;;;;;5110206;28;20206;-70
2022/10/11 00:14:22;;;;;;;2.77;1.40;;;13.10;99.90;;;;;;5119130;27;20623;-70
2022/10/11 00:16:48;;;;;;;3.23;1.70;;;13.10;99.90;;;;;;5130890;27;20558;-70
2022/10/11 00:19:15;;;;;;;4.63;1.80;;;12.80;99.90;;;;;;5130915;27;20660;-70
2022/10/11 00:21:42;;;;;;;5.67;1.67;;;12.80;99.90;;;;;;5131187;27;20629;-70
2022/10/11 00:24:11;;;;;;;5.47;1.80;;;12.70;99.90;;;;;;5131209;27;20217;-70
2022/10/11 00:26:38;;;;;;;8.03;2.20;;;12.60;99.90;;;;;;5131147;27;20200;-70
2022/10/11 00:29:05;;;;;;;6.10;1.93;;;12.50;99.90;;;;;;5131329;27;20552;-70
2022/10/11 00:31:32;;;;;;;3.83;1.70;;;12.40;99.90;;;;;;5130795;27;20201;-70
2022/10/11 00:33:58;;;;;;;8.60;2.10;;;12.40;99.90;;;;;;5131019;27;20229;-70
2022/10/11 00:36:25;;;;;;;5.03;1.83;;;12.30;99.90;;;;;;5131145;27;20228;-70
2022/10/11 00:38:52;;;;;;;6.77;1.73;;;12.30;99.90;;;;;;5130749;27;20225;-70
2022/10/11 00:41:20;;;;;;;7.27;1.70;;;12.40;99.90;;;;;;5130730;27;20250;-70
2022/10/11 00:43:47;;;;;;;7.00;1.80;;;12.40;99.90;;;;;;5131142;27;20222;-70
2022/10/11 00:46:38;;;;;;;4.60;1.57;;;12.30;99.90;;;;;;5130646;27;20198;-70
2022/10/11 00:49:13;;;;;;;5.33;1.37;;;12.30;99.90;;;;;;5101631;27;20205;-70
2022/10/11 00:51:44;;;;;;;8.77;2.47;;;12.30;99.90;;;;;;5126817;27;20224;-71
2022/10/11 00:54:15;;;;;;;5.57;1.83;;;12.20;99.90;;;;;;5130302;27;20225;-71
2022/10/11 00:56:47;;;;;;;5.17;1.90;;;12.20;99.90;;;;;;5130606;27;20193;-70
2022/10/11 00:59:18;;;;;;;5.23;1.80;;;12.10;99.90;;;;;;5130378;27;20844;-70
2022/10/11 01:01:45;;;;;;;7.17;2.23;;;12.20;99.90;;;;;;5123063;27;20241;-70
2022/10/11 01:04:12;;;;;;;5.47;1.70;;;12.20;99.90;;;;;;5119432;27;20208;-71
2022/10/11 01:06:40;;;;;;;6.53;2.30;;;12.20;99.90;;;;;;5130354;27;20570;-71
2022/10/11 01:09:07;;;;;;;5.63;1.97;;;12.30;99.90;;;;;;5130331;27;20201;-70
2022/10/11 01:11:36;;;;;;;3.97;1.83;;;12.30;99.90;;;;;;5113465;27;20206;-71
2022/10/11 01:14:20;;;;;;;5.43;1.73;;;12.30;99.90;;;;;;5109498;28;20291;-70
2022/10/11 01:16:52;;;;;;;7.17;1.77;;;12.30;99.90;;;;;;5114361;27;20198;-69
2022/10/11 01:19:38;;;;;;;5.37;1.80;;;12.20;99.90;;;;;;5129952;27;20198;-70
2022/10/11 01:22:17;;;;;;;7.23;1.77;;;12.10;99.90;;;;;;5129484;27;20208;-71
2022/10/11 01:25:04;;;;;;;6.53;1.83;;;12.00;99.90;;;;;;5129921;27;20193;-71
2022/10/11 01:27:45;;;;;;;5.43;1.70;;;12.10;99.90;;;;;;5109355;28;20602;-71
2022/10/11 01:30:23;;;;;;;6.57;2.07;;;12.00;99.90;;;;;;5109461;28;20966;-71
2022/10/11 01:32:57;;;;;;;5.07;1.80;;;12.10;99.90;;;;;;5109374;28;20186;-70
2022/10/11 01:35:30;;;;;;;10.87;2.10;;;12.10;99.90;;;;;;5121741;27;20221;-70
2022/10/11 01:38:02;;;;;;;2.80;1.80;;;12.10;99.90;;;;;;5129554;27;20200;-71
2022/10/11 01:40:34;;;;;;;5.73;2.17;;;12.20;99.90;;;;;;5129604;27;20196;-70
2022/10/11 01:43:03;;;;;;;4.97;2.17;;;12.20;99.90;;;;;;5129473;27;20190;-70
2022/10/11 01:45:33;;;;;;;4.97;2.00;;;12.10;99.90;;;;;;5129284;27;20205;-70
2022/10/11 01:48:06;;;;;;;7.37;2.23;;;12.10;99.90;;;;;;5128967;27;20773;-70
2022/10/11 01:50:37;;;;;;;6.17;1.80;;;12.10;99.90;;;;;;5108954;28;20191;-70
2022/10/11 01:53:25;;;;;;;5.43;1.80;;;12.10;99.90;;;;;;5126994;27;20205;-70
2022/10/11 01:55:57;;;;;;;5.13;1.50;;;12.00;99.90;;;;;;5128969;27;20225;-70
2022/10/11 01:58:38;;;;;;;6.90;1.70;;;12.00;99.90;;;;;;5129086;27;20290;-70
2022/10/11 02:01:15;;;;;;;5.53;1.83;;;12.00;99.90;;;;;;5128722;27;20715;-71
2022/10/11 02:03:47;;;;;;;8.53;2.00;;;11.90;99.90;;;;;;5108377;28;20190;-70
2022/10/11 02:06:22;;;;;;;7.80;2.37;;;11.80;99.90;;;;;;5111095;27;20201;-70
2022/10/11 02:08:54;;;;;;;8.37;2.03;;;11.80;99.90;;;;;;5128977;27;20204;-70
2022/10/11 02:11:24;;;;;;;6.20;1.93;;;11.80;99.90;;;;;;5128773;27;20193;-70
2022/10/11 02:13:57;;;;;;;8.23;1.70;;;11.80;99.90;;;;;;5129162;27;20208;-71
2022/10/11 02:16:31;;;;;;;4.73;2.00;;;11.80;99.90;;;;;;5128841;27;20648;-69
2022/10/11 02:19:01;;;;;;;6.13;1.70;;;11.80;99.90;;;;;;5128603;27;20559;-71
2022/10/11 02:21:30;;;;;;;5.87;1.97;;;11.80;99.90;;;;;;5128933;27;20229;-68
2022/10/11 02:24:01;;;;;;;8.60;2.20;;;11.70;99.90;;;;;;5128588;27;20951;-68
2022/10/11 02:26:32;;;;;;;5.43;2.13;;;11.80;99.90;;;;;;5128776;27;20197;-67
2022/10/11 02:29:03;;;;;;;8.73;1.90;;;11.60;99.90;;;;;;5125391;27;20202;-68
2022/10/11 02:31:34;;;;;;;8.50;2.10;;;11.50;99.90;;;;;;5126897;27;20211;-68
2022/10/11 02:34:09;;;;;;;9.53;2.10;;;11.50;99.90;;;;;;5125454;27;20194;-67
2022/10/11 02:36:42;;;;;;;11.10;2.27;;;11.30;99.90;;;;;;5106662;28;20197;-68
2022/10/11 02:39:14;;;;;;;7.90;1.83;;;11.20;99.90;;;;;;5110740;27;20213;-68
2022/10/11 02:41:42;;;;;;;8.77;3.47;;;11.20;99.90;;;;;;5126488;27;20194;-68
2022/10/11 02:44:12;;;;;;;10.70;3.30;;;11.20;99.90;;;;;;5126008;27;20576;-68
2022/10/11 02:46:42;;;;;;;6.87;2.33;;;11.10;99.90;;;;;;5126334;27;20706;-68
2022/10/11 02:49:11;;;;;;;9.90;1.90;;;11.10;99.90;;;;;;5116834;27;20288;-68
2022/10/11 02:51:38;;;;;;;4.67;2.10;;;11.10;99.90;;;;;;5105505;28;20532;-68
2022/10/11 02:54:05;;;;;;;4.83;1.80;;;10.90;99.90;;;;;;5114198;28;20206;-68
2022/10/11 02:56:32;;;;;;;2.57;1.43;;;10.90;99.90;;;;;;5123033;28;20197;-68
2022/10/11 02:58:59;;;;;;;6.33;1.90;;;10.80;99.90;;;;;;5126030;27;20206;-68
2022/10/11 03:01:25;;;;;;;5.13;1.70;;;10.90;99.90;;;;;;5126234;27;20244;-68
2022/10/11 03:03:54;;;;;;;4.87;1.77;;;10.80;99.90;;;;;;5126238;27;20214;-68
2022/10/11 03:06:20;;;;;;;3.30;1.80;;;10.80;99.90;;;;;;5126340;27;20209;-68
2022/10/11 03:08:47;;;;;;;3.07;1.87;;;10.80;99.90;;;;;;5127070;27;20201;-68
2022/10/11 03:11:14;;;;;;;5.03;2.17;;;10.90;99.90;;;;;;5127428;27;20216;-68
2022/10/11 03:13:41;;;;;;;8.33;2.20;;;10.90;99.90;;;;;;5127760;27;20198;-68
2022/10/11 03:16:07;;;;;;;4.07;1.70;;;11.00;99.90;;;;;;5127972;27;20232;-68
2022/10/11 03:18:34;;;;;;;4.73;1.83;;;11.00;99.90;;;;;;5128224;27;20202;-68
2022/10/11 03:21:02;;;;;;;9.40;2.20;;;11.00;99.90;;;;;;5127802;27;20582;-68
2022/10/11 03:23:29;;;;;;;6.10;2.17;;;10.90;99.90;;;;;;5128299;27;20201;-67
2022/10/11 03:25:56;;;;;;;7.23;1.83;;;10.90;99.90;;;;;;5127823;27;20201;-68
2022/10/11 03:28:22;;;;;;;8.00;2.30;;;10.90;99.90;;;;;;5128010;27;20205;-68
2022/10/11 03:30:49;;;;;;;7.17;2.37;;;10.70;99.90;;;;;;5128138;27;20227;-68
2022/10/11 03:33:16;;;;;;;4.80;1.63;;;10.60;99.90;;;;;;5127633;27;20205;-68
2022/10/11 03:35:45;;;;;;;6.07;1.90;;;10.60;99.90;;;;;;5127815;27;20230;-68
2022/10/11 03:38:15;;;;;;;7.13;2.20;;;10.70;99.90;;;;;;5127665;27;20252;-67
2022/10/11 03:40:43;;;;;;;8.67;2.00;;;10.50;99.90;;;;;;5108650;27;20198;-68
2022/10/11 03:43:10;;;;;;;10.37;2.13;;;10.40;99.90;;;;;;5107409;28;20203;-69
2022/10/11 03:45:37;;;;;;;7.27;2.57;;;10.40;99.90;;;;;;5107740;28;20558;-68
2022/10/11 03:48:04;;;;;;;9.90;2.20;;;10.40;99.90;;;;;;5111092;28;20292;-68
2022/10/11 03:50:31;;;;;;;8.50;2.40;;;10.50;99.90;;;;;;5119660;27;20635;-68
2022/10/11 03:52:58;;;;;;;8.77;2.67;;;10.50;99.90;;;;;;5128152;27;20682;-68
2022/10/11 03:55:26;;;;;;;7.83;2.43;;;10.60;99.90;;;;;;5131081;27;20695;-68
2022/10/11 03:57:53;;;;;;;10.17;2.80;;;10.60;99.90;;;;;;5131382;27;20198;-68
2022/10/11 04:00:20;;;;;;;5.10;2.27;;;10.70;99.90;;;;;;5130987;27;21016;-68
2022/10/11 04:02:46;;;;;;;9.07;2.20;;;10.70;99.90;;;;;;5131162;27;20205;-68
2022/10/11 04:05:14;;;;;;;6.87;2.47;;;10.70;99.90;;;;;;5131495;27;20754;-68
2022/10/11 04:07:40;;;;;;;8.40;3.47;;;10.70;99.90;;;;;;5131426;27;20201;-68
2022/10/11 04:10:08;;;;;;;10.77;3.40;;;10.70;99.90;;;;;;5131396;27;20205;-68
2022/10/11 04:12:37;;;;;;;10.63;3.70;;;10.70;99.90;;;;;;5131424;27;20207;-69
2022/10/11 04:15:04;;;;;;;7.23;2.97;;;10.70;99.90;;;;;;5131111;27;20243;-68
2022/10/11 04:17:31;;;;;;;9.87;2.80;;;10.70;99.90;;;;;;5131490;27;20224;-68
2022/10/11 04:19:58;;;;;;;6.20;2.50;;;10.80;99.90;;;;;;5131196;27;20201;-68
2022/10/11 04:22:25;;;;;;;7.40;2.60;;;10.80;99.90;;;;;;5130994;27;20683;-68
2022/10/11 04:24:51;;;;;;;11.93;2.90;;;10.80;99.90;;;;;;5131443;27;20224;-68
2022/10/11 04:27:18;;;;;;;10.53;2.67;;;10.80;99.90;;;;;;5130713;27;20678;-68
2022/10/11 04:29:46;;;;;;;7.57;2.50;;;10.60;99.90;;;;;;5131076;27;20202;-68
2022/10/11 04:32:13;;;;;;;5.83;2.23;;;10.50;99.90;;;;;;5130832;27;20228;-68
2022/10/11 04:34:40;;;;;;;6.63;2.63;;;10.40;99.90;;;;;;5124457;27;20199;-68
2022/10/11 04:37:06;;;;;;;8.90;2.80;;;10.40;99.90;;;;;;5130468;27;20209;-68
2022/10/11 04:39:33;;;;;;;7.63;3.23;;;10.40;99.90;;;;;;5130671;27;20707;-68
2022/10/11 04:42:00;;;;;;;9.97;3.10;;;10.40;99.90;;;;;;5130520;27;20209;-68
2022/10/11 04:44:27;;;;;;;8.10;3.10;;;10.30;99.90;;;;;;5131076;27;20205;-68
2022/10/11 04:46:55;;;;;;;7.80;2.90;;;10.30;99.90;;;;;;5130212;27;20668;-68
2022/10/11 04:49:22;;;;;;;9.03;2.83;;;10.30;99.90;;;;;;5119599;27;20567;-68
2022/10/11 04:51:49;;;;;;;6.27;2.70;;;10.30;99.90;;;;;;5125857;27;20206;-68
2022/10/11 04:54:16;;;;;;;7.43;2.70;;;10.40;99.90;;;;;;5130713;27;20205;-69
2022/10/11 04:56:43;;;;;;;10.03;2.87;;;10.40;99.90;;;;;;5129836;27;20225;-68
2022/10/11 04:59:10;;;;;;;8.80;2.97;;;10.40;99.90;;;;;;5129398;27;20573;-68
2022/10/11 05:01:37;;;;;;;6.47;2.70;;;10.40;99.90;;;;;;5130010;27;20372;-68
2022/10/11 05:04:05;;;;;;;6.43;2.80;;;10.40;99.90;;;;;;5130010;27;20206;-68
2022/10/11 05:06:32;;;;;;;7.10;2.70;;;10.40;99.90;;;;;;5127120;27;20217;-68
2022/10/11 05:08:59;;;;;;;7.57;2.87;;;10.30;99.90;;;;;;5130078;27;20210;-68
2022/10/11 05:11:26;;;;;;;4.67;2.53;;;10.20;99.90;;;;;;5129859;27;20686;-68
2022/10/11 05:13:52;;;;;;;8.57;3.00;;;10.20;99.90;;;;;;5130251;27;20217;-68
2022/10/11 05:16:19;;;;;;;9.80;3.30;;;10.10;99.90;;;;;;5130158;27;20229;-68
2022/10/11 05:18:46;;;;;;;6.80;2.80;;;10.10;99.90;;;;;;5130110;27;20212;-68
2022/10/11 05:21:17;;;;;;;6.67;3.10;;;10.10;99.90;;;;;;5129688;27;20205;-68
2022/10/11 05:23:45;;;;;;;7.87;2.50;;;10.10;99.90;;;;;;5129819;27;20200;-68
2022/10/11 05:26:12;;;;;;;5.73;2.87;;;10.10;99.90;;;;;;5129664;27;20228;-67
2022/10/11 05:28:38;;;;;;;7.63;2.90;;;10.10;99.90;;;;;;5129832;27;20197;-68
2022/10/11 05:31:05;;;;;;;10.10;3.10;;;10.10;99.90;;;;;;5128498;27;20204;-68
2022/10/11 05:33:32;;;;;;;9.37;3.20;;;10.10;99.90;;;;;;5109141;28;20202;-68
2022/10/11 05:35:59;;;;;;;9.13;3.27;;;10.10;99.90;;;;;;5126629;27;20244;-68
2022/10/11 05:38:27;;;;;;;6.40;3.00;;;10.20;99.90;;;;;;5129377;27;20228;-68
2022/10/11 05:40:54;;;;;;;7.37;3.20;;;10.20;99.90;;;;;;5129426;27;20284;-68
2022/10/11 05:43:21;;;;;;;8.53;3.60;;;10.20;99.90;;;;;;5119424;27;20213;-68
2022/10/11 05:45:47;;;;;;;11.70;3.07;;;10.10;99.90;;;;;;5108970;28;20206;-68
2022/10/11 05:48:14;;;;;;;7.13;3.57;;;10.00;99.90;;;;;;5109440;27;20695;-68
2022/10/11 05:50:41;;;;;;;9.37;3.40;;;10.10;99.90;;;;;;5129499;27;20216;-68
2022/10/11 05:53:08;;;;;;;9.60;3.10;;;10.10;99.90;;;;;;5128969;27;20689;-68
2022/10/11 05:55:41;;;;;;;6.13;3.20;;;10.10;99.90;;;;;;5129336;27;20225;-70
2022/10/11 05:58:10;;;;;;;8.10;2.83;;;10.10;99.90;;;;;;5129464;27;20190;-67
2022/10/11 06:00:37;;;;;;;6.43;2.90;;;10.10;99.90;;;;;;5128974;27;20237;-69
2022/10/11 06:03:09;;;;;;;6.10;2.80;;;10.10;99.90;;;;;;5128600;27;20257;-67
2022/10/11 06:05:36;;;;;;;6.43;3.40;;;10.10;99.90;;;;;;5129314;27;20268;-69
2022/10/11 06:08:04;;;;;;;9.20;3.60;;;10.20;99.90;;;;;;5129111;27;20205;-67
2022/10/11 06:10:32;;;;;;;9.63;3.33;;;10.10;99.90;;;;;;5128602;27;20213;-69
2022/10/11 06:13:00;;;;;;;8.13;3.10;;;10.00;99.90;;;;;;5128900;27;20201;-68
2022/10/11 06:15:27;;;;;;;5.40;2.80;;;9.90;99.90;;;;;;5128730;27;20236;-68
2022/10/11 06:17:54;;;;;;;11.67;3.60;;;9.80;99.90;;;;;;5128754;27;20205;-68
2022/10/11 06:20:21;;;;;;;5.50;3.30;;;9.70;99.90;;;;;;5128527;27;20201;-67
2022/10/11 06:22:47;;;;;;;8.20;3.20;;;9.60;99.90;;;;;;5112682;27;20247;-68
2022/10/11 06:25:14;;;;;;;9.77;3.27;;;9.60;99.90;;;;;;5108193;28;20213;-68
2022/10/11 06:27:41;;;;;;;8.00;3.43;;;9.60;99.90;;;;;;5108329;28;20203;-68
2022/10/11 06:30:10;;;;;;;7.13;3.20;;;9.60;99.90;;;;;;5108245;28;20288;-67
2022/10/11 06:32:37;;;;;;;6.50;3.30;;;9.70;99.90;;;;;;5108236;28;20225;-68
2022/10/11 06:35:04;;;;;;;10.33;2.83;;;9.70;99.90;;;;;;5117781;27;20212;-68
2022/10/11 06:37:33;;;;;;;6.47;2.93;;;9.80;99.90;;;;;;5128494;27;20233;-68
2022/10/11 06:40:00;;;;;;;7.77;3.27;;;9.80;99.90;;;;;;5114768;27;20214;-67
2022/10/11 06:42:27;;;;;;;7.63;3.20;;;9.70;99.90;;;;;;5107727;28;20206;-68
2022/10/11 06:44:54;;;;;;;9.17;3.20;;;9.70;99.90;;;;;;5128327;27;20212;-68
2022/10/11 06:47:22;;;;;;;11.57;3.53;;;9.70;99.90;;;;;;5128458;27;20216;-68
2022/10/11 06:49:49;;;;;;;7.90;3.20;;;9.70;99.90;;;;;;5113711;27;20600;-68
2022/10/11 06:52:16;;;;;;;10.83;3.10;;;9.80;99.90;;;;;;5119167;28;20220;-68
2022/10/11 06:54:42;;;;;;;7.23;2.77;;;10.00;99.90;;;;;;5128807;27;20201;-68
2022/10/11 06:57:09;;;;;;;8.93;3.03;;;10.00;99.90;;;;;;5127860;27;20727;-68
2022/10/11 06:59:36;;;;;;;7.97;3.30;;;10.10;99.90;;;;;;5128448;27;20197;-68
2022/10/11 07:02:02;;;;;;;8.17;3.13;;;10.20;99.90;;;;;;5128374;27;20198;-68
2022/10/11 07:04:32;;;;;;;9.20;3.03;;;10.10;99.90;;;;;;5128350;27;20694;-68
2022/10/11 07:06:59;;;;;;;6.97;3.00;;;10.10;99.90;;;;;;5128191;27;20205;-68
2022/10/11 07:09:26;;;;;;;10.07;3.03;;;10.20;99.90;;;;;;5128017;27;20220;-68
2022/10/11 07:11:53;;;;;;;9.40;3.40;;;10.30;99.90;;;;;;5128159;27;20254;-68
2022/10/11 07:14:19;;;;;;;10.77;3.53;;;10.40;99.90;;;;;;5128261;27;20212;-68
2022/10/11 07:16:46;;;;;;;6.50;3.10;;;10.30;99.90;;;;;;5127986;27;20232;-68
2022/10/11 07:19:13;;;;;;;6.77;2.87;;;10.30;99.90;;;;;;5127357;27;20209;-68
2022/10/11 07:21:41;;;;;;;7.63;3.07;;;10.30;99.90;;;;;;5129945;27;20576;-68
2022/10/11 07:24:08;;;;;;;10.33;3.17;;;10.40;99.90;;;;;;5126039;27;20202;-68
2022/10/11 07:26:35;;;;;;;9.30;3.00;;;10.50;99.90;;;;;;5111731;28;20206;-68
2022/10/11 07:29:02;;;;;;;7.43;3.53;;;10.60;99.90;;;;;;5111148;28;20675;-68
2022/10/11 07:31:28;;;;;;;5.97;2.97;;;10.70;99.90;;;;;;5111516;28;20212;-68
2022/10/11 07:33:55;;;;;;;9.17;3.07;;;10.70;99.90;;;;;;5113440;27;20216;-68
2022/10/11 07:36:23;;;;;;;7.80;3.07;;;10.80;99.90;;;;;;5111345;28;20316;-68
2022/10/11 07:38:51;;;;;;;6.43;2.70;;;11.00;99.90;;;;;;5112041;27;20763;-68
2022/10/11 07:41:18;;;;;;;5.80;2.63;;;11.00;99.90;;;;;;5131525;27;20209;-68
2022/10/11 07:43:46;;;;;;;4.47;2.90;;;11.00;99.90;;;;;;5131834;27;20201;-68
2022/10/11 07:46:14;;;;;;;8.63;3.13;;;11.10;99.90;;;;;;5131756;27;20247;-68
2022/10/11 07:48:41;;;;;;;8.63;2.70;;;11.00;99.90;;;;;;5131614;27;20205;-68
2022/10/11 07:51:09;;;;;;;7.13;2.80;;;11.00;99.90;;;;;;5131673;27;20212;-68
2022/10/11 07:53:40;;;;;;;10.20;3.50;;;11.00;99.90;;;;;;5131528;27;20221;-68
2022/10/11 07:56:11;;;;;;;9.07;3.17;;;11.10;99.90;;;;;;5131274;27;20237;-68
2022/10/11 07:58:38;;;;;;;8.17;3.03;;;11.20;99.90;;;;;;5131277;27;20713;-68
2022/10/11 08:01:06;;;;;;;7.93;2.73;;;11.20;99.90;;;;;;5130997;27;20238;-68
2022/10/11 08:03:33;;;;;;;4.40;2.57;;;11.30;99.90;;;;;;5131534;27;20201;-68
2022/10/11 08:06:01;;;;;;;7.30;2.80;;;11.40;99.90;;;;;;5131548;27;20224;-68
2022/10/11 08:08:28;;;;;;;8.13;3.00;;;11.50;99.90;;;;;;5131525;27;20201;-68
2022/10/11 08:10:55;;;;;;;9.70;3.10;;;11.40;99.90;;;;;;5131155;27;20276;-68
2022/10/11 08:13:23;;;;;;;7.60;2.83;;;11.40;99.90;;;;;;5131311;27;20208;-68
2022/10/11 08:15:50;;;;;;;7.23;2.90;;;11.50;99.90;;;;;;5131065;27;20228;-68
2022/10/11 08:18:17;;;;;;;7.67;2.93;;;11.60;99.90;;;;;;5130783;27;20209;-68
2022/10/11 08:20:44;;;;;;;8.73;2.83;;;11.70;99.90;;;;;;5130825;27;20202;-68
2022/10/11 08:23:11;;;;;;;9.07;2.80;;;11.80;99.90;;;;;;5130794;27;20221;-68
2022/10/11 08:25:39;;;;;;;10.40;3.10;;;11.90;99.90;;;;;;5130958;27;20670;-68
2022/10/11 08:28:06;;;;;;;12.00;3.10;;;12.00;99.90;;;;;;5130838;27;20219;-68
2022/10/11 08:30:35;;;;;;;7.40;2.77;;;12.00;99.90;;;;;;5130764;27;20213;-68
2022/10/11 08:33:01;;;;;;;10.73;3.00;;;12.10;99.90;;;;;;5113146;27;20206;-68
2022/10/11 08:35:29;;;;;;;9.70;2.87;;;12.20;99.90;;;;;;5118972;27;20206;-68
2022/10/11 08:37:55;;;;;;;7.60;2.90;;;12.20;99.90;;;;;;5110080;28;20238;-68
2022/10/11 08:40:24;;;;;;;8.83;2.83;;;12.30;99.90;;;;;;5115579;27;20208;-68
2022/10/11 08:42:58;;;;;;;7.60;2.97;;;12.50;99.90;;;;;;5130985;27;20205;-68
2022/10/11 08:45:32;;;;;;;9.13;2.70;;;12.60;99.90;;;;;;5130718;27;20186;-68
2022/10/11 08:48:13;;;;;;;9.90;3.20;;;12.70;99.90;;;;;;5130167;27;20232;-68
2022/10/11 08:50:40;;;;;;;9.63;2.87;;;12.80;99.90;;;;;;5110490;28;20198;-68
2022/10/11 08:53:18;;;;;;;6.27;2.50;;;12.80;99.90;;;;;;5128811;27;20205;-68
2022/10/11 08:55:49;;;;;;;6.23;2.77;;;12.90;99.90;;;;;;5130394;27;20236;-68
2022/10/11 08:58:20;;;;;;;6.70;3.23;;;12.90;99.90;;;;;;5130457;27;20232;-69
2022/10/11 09:00:51;;;;;;;3.97;2.27;;;12.90;99.90;;;;;;5130135;27;20237;-69
2022/10/11 09:03:31;;;;;;;7.40;2.47;;;12.90;99.90;;;;;;5130018;27;20201;-68
2022/10/11 09:06:13;;;;;;;9.40;2.50;;;13.00;99.90;;;;;;5130349;27;20190;-69
2022/10/11 09:08:51;;;;;;;8.23;2.53;;;13.20;99.90;;;;;;5130315;27;20265;-69
2022/10/11 09:11:31;;;;;;;10.33;2.60;;;13.20;99.90;;;;;;5130166;27;20193;-68
2022/10/11 09:14:11;;;;;;;7.87;2.63;;;13.30;99.90;;;;;;5129984;27;20193;-68
2022/10/11 09:16:53;;;;;;;5.70;2.33;;;13.30;99.90;;;;;;5124716;27;20213;-68
2022/10/11 09:19:44;;;;;;;6.13;2.77;;;13.50;99.90;;;;;;5108995;28;20190;-68
2022/10/11 09:22:17;;;;;;;7.30;2.83;;;13.50;99.90;;;;;;5119981;27;20210;-68
2022/10/11 09:24:57;;;;;;;10.30;2.17;;;13.50;99.90;;;;;;5130309;27;20189;-68
2022/10/11 09:27:31;;;;;;;5.83;2.37;;;13.60;99.90;;;;;;5127606;27;20209;-68
2022/10/11 09:30:03;;;;;;;7.37;3.13;;;13.60;99.90;;;;;;5109364;28;20194;-68
2022/10/11 09:32:33;;;;;;;9.23;2.70;;;13.60;99.90;;;;;;5109120;28;20201;-69
2022/10/11 09:35:10;;;;;;;5.07;2.43;;;13.70;99.90;;;;;;5108967;28;20262;-68
2022/10/11 09:37:44;;;;;;;8.87;2.57;;;13.90;99.90;;;;;;5123116;27;20239;-68
2022/10/11 09:40:23;;;;;;;5.67;2.13;;;14.00;99.90;;;;;;5129241;27;20193;-68
2022/10/11 09:42:50;;;;;;;9.00;2.60;;;14.00;99.90;;;;;;5129612;27;20193;-69
2022/10/11 09:45:19;;;;;;;8.97;2.70;;;14.10;99.90;;;;;;5128427;27;20208;-69
2022/10/11 09:47:48;;;;;;;7.70;2.10;;;14.20;99.90;;;;;;5129153;27;20213;-68
2022/10/11 09:50:18;;;;;;;8.17;2.50;;;14.40;99.90;;;;;;5110536;27;20206;-68
2022/10/11 09:52:49;;;;;;;6.50;2.47;;;14.40;99.90;;;;;;5124329;27;20212;-69
2022/10/11 09:55:31;;;;;;;5.23;2.10;;;14.50;99.90;;;;;;5129098;27;20197;-69
2022/10/11 09:57:59;;;;;;;7.20;2.27;;;14.60;99.90;;;;;;5129197;27;20224;-68
2022/10/11 10:00:26;;;;;;;4.50;1.93;;;14.70;99.90;;;;;;5129228;27;20393;-68
2022/10/11 10:02:54;;;;;;;5.87;2.37;;;14.80;99.90;;;;;;5129193;27;20217;-68
2022/10/11 10:05:24;;;;;;;10.17;2.47;;;14.80;99.90;;;;;;5128993;27;20200;-68
2022/10/11 10:07:59;;;;;;;9.23;2.20;;;14.80;99.90;;;;;;5128911;27;20680;-68
2022/10/11 10:10:30;;;;;;;6.17;2.10;;;15.00;99.90;;;;;;5128728;27;20216;-69
2022/10/11 10:12:59;;;;;;;5.47;2.20;;;15.00;99.90;;;;;;5128796;27;20273;-68
2022/10/11 10:15:29;;;;;;;8.73;2.67;;;15.10;99.90;;;;;;5128832;27;20722;-68
2022/10/11 10:17:57;;;;;;;12.90;2.50;;;15.30;99.90;;;;;;5128594;27;20272;-68
2022/10/11 10:20:30;;;;;;;7.33;2.30;;;15.40;99.90;;;;;;5128784;27;20575;-69
2022/10/11 10:22:58;;;;;;;9.90;2.27;;;15.50;99.90;;;;;;5116035;27;20473;-69
2022/10/11 10:25:33;;;;;;;6.17;2.40;;;15.60;99.90;;;;;;5111765;27;20638;-69
2022/10/11 10:28:02;;;;;;;8.90;2.33;;;15.60;99.90;;;;;;5107913;28;20304;-68
2022/10/11 10:30:30;;;;;;;7.87;2.47;;;15.60;99.90;;;;;;5108319;28;20209;-68
2022/10/11 10:33:00;;;;;;;8.57;2.43;;;15.70;99.90;;;;;;5114101;27;20576;-68
2022/10/11 10:35:32;;;;;;;8.37;2.30;;;15.70;99.90;;;;;;5115341;27;20569;-69
2022/10/11 10:38:08;;;;;;;6.17;2.30;;;15.70;99.90;;;;;;5107925;28;20244;-68
2022/10/11 10:40:42;;;;;;;8.90;2.47;;;15.80;99.90;;;;;;5108077;28;20198;-68
2022/10/11 10:43:15;;;;;;;9.87;3.27;;;15.80;99.90;;;;;;5108270;28;20194;-69
2022/10/11 10:46:06;;;;;;;7.37;2.30;;;15.80;99.90;;;;;;5108226;28;20221;-68
2022/10/11 10:48:41;;;;;;;11.07;2.77;;;15.90;99.90;;;;;;5093755;28;20207;-68
2022/10/11 10:51:21;;;;;;;6.90;2.73;;;16.20;99.90;;;;;;5109824;28;20194;-68
2022/10/11 10:53:53;;;;;;;8.57;2.30;;;16.40;99.90;;;;;;5128245;27;20635;-68
2022/10/11 10:56:27;;;;;;;6.30;2.03;;;16.40;99.90;;;;;;5129975;27;20197;-68
2022/10/11 10:59:17;;;;;;;7.33;2.00;;;16.40;99.90;;;;;;5132086;27;20781;-69
2022/10/11 11:01:53;;;;;;;6.93;2.40;;;16.50;99.90;;;;;;5132236;27;20731;-68
2022/10/11 11:04:28;;;;;;;8.87;2.40;;;16.40;99.90;;;;;;5132488;27;20197;-68
2022/10/11 11:07:00;;;;;;;11.77;2.23;;;16.50;99.90;;;;;;5132427;27;20193;-68
2022/10/11 11:09:40;;;;;;;9.77;2.40;;;16.40;99.90;;;;;;5124542;27;20202;-68
2022/10/11 11:12:20;;;;;;;7.33;2.07;;;16.50;99.90;;;;;;5111729;28;20279;-68
2022/10/11 11:14:56;;;;;;;6.47;2.17;;;16.50;99.90;;;;;;5111910;28;20197;-68
2022/10/11 11:17:30;;;;;;;6.53;2.40;;;16.70;99.90;;;;;;5111983;28;20598;-70
2022/10/11 11:20:12;;;;;;;7.73;2.73;;;17.10;99.90;;;;;;5122676;27;20192;-68
2022/10/11 11:22:48;;;;;;;5.97;2.17;;;17.20;99.90;;;;;;5132451;27;20318;-68
2022/10/11 11:25:27;;;;;;;6.37;1.93;;;17.10;99.90;;;;;;5118980;27;20209;-69
2022/10/11 11:28:04;;;;;;;5.37;1.90;;;16.90;99.90;;;;;;5111480;28;20189;-68
2022/10/11 11:30:44;;;;;;;5.97;1.83;;;16.60;99.90;;;;;;5129578;27;20209;-68
2022/10/11 11:33:21;;;;;;;5.33;1.90;;;16.60;99.90;;;;;;5131811;27;20565;-68
2022/10/11 11:35:51;;;;;;;5.00;2.07;;;16.70;99.90;;;;;;5132094;27;20201;-68
2022/10/11 11:38:24;;;;;;;6.60;2.20;;;16.40;99.90;;;;;;5131673;27;20261;-68
2022/10/11 11:40:56;;;;;;;5.27;1.80;;;16.20;99.90;;;;;;5131544;27;20193;-68
2022/10/11 11:43:31;;;;;;;7.43;2.00;;;16.10;99.90;;;;;;5131888;27;20197;-68
2022/10/11 11:46:03;;;;;;;8.30;2.13;;;16.10;99.90;;;;;;5131763;27;20189;-68
2022/10/11 11:48:30;;;;;;;8.57;2.27;;;16.10;99.90;;;;;;5127911;27;20186;-69
2022/10/11 11:51:03;;;;;;;5.53;2.30;;;16.10;99.90;;;;;;5111193;27;20202;-68
2022/10/11 11:53:49;;;;;;;11.37;2.07;;;16.10;99.90;;;;;;5131761;27;20550;-69
2022/10/11 11:56:26;;;;;;;6.50;2.30;;;16.00;99.90;;;;;;5131432;27;20228;-69
2022/10/11 11:59:01;;;;;;;4.37;1.60;;;16.00;99.90;;;;;;5131377;27;20691;-68
2022/10/11 12:01:37;;;;;;;7.40;1.83;;;15.80;99.90;;;;;;5131266;27;20236;-68
2022/10/11 12:04:09;;;;;;;5.60;2.30;;;15.70;99.90;;;;;;5131283;27;20189;-68
2022/10/11 12:06:37;;;;;;;4.77;1.93;;;15.70;99.90;;;;;;5115132;27;20206;-68
2022/10/11 12:09:09;;;;;;;7.17;2.37;;;15.60;99.90;;;;;;5110253;28;20210;-68
2022/10/11 12:11:41;;;;;;;7.77;1.93;;;15.60;99.90;;;;;;5110423;28;20209;-69
2022/10/11 12:14:23;;;;;;;5.13;1.90;;;15.60;99.90;;;;;;5110674;28;20209;-68
2022/10/11 12:17:23;;;;;;;10.77;2.27;;;15.60;99.90;;;;;;5110705;28;20312;-68
2022/10/11 12:20:24;;;;;;;7.27;1.80;;;15.60;99.90;;;;;;5047113;28;20629;-69
2022/10/11 12:22:58;;;;;;;7.57;2.33;;;15.60;99.90;;;;;;5063119;28;20286;-69
2022/10/11 12:25:42;;;;;;;5.57;2.00;;;15.60;99.90;;;;;;5104341;27;20296;-69
2022/10/11 12:29:01;;;;;;;6.13;1.87;;;15.60;99.90;;;;;;5130779;27;20194;-68
2022/10/11 12:31:31;;;;;;;9.20;1.93;;;15.70;99.90;;;;;;5130914;27;20189;-68
2022/10/11 12:34:17;;;;;;;9.17;2.10;;;15.80;99.90;;;;;;5130684;27;20280;-69
2022/10/11 12:36:46;;;;;;;6.60;1.90;;;15.80;99.90;;;;;;5130570;27;20205;-68
2022/10/11 12:39:47;;;;;;;7.23;1.80;;;15.80;99.90;;;;;;5130282;27;20762;-69
2022/10/11 12:42:24;;;;;;;4.37;2.03;;;15.70;99.90;;;;;;5115187;27;20206;-68
2022/10/11 12:45:34;;;;;;;5.63;2.20;;;15.70;99.90;;;;;;5130863;27;20194;-68
2022/10/11 12:48:14;;;;;;;7.30;2.03;;;15.70;99.90;;;;;;5130812;27;20196;-69
2022/10/11 12:50:50;;;;;;;5.47;1.67;;;15.80;99.90;;;;;;5110370;28;20190;-68
2022/10/11 12:53:33;;;;;;;5.27;2.00;;;15.90;99.90;;;;;;5129847;27;20646;-69
2022/10/11 12:56:06;;;;;;;4.70;1.80;;;16.00;99.90;;;;;;5130602;27;20205;-68
2022/10/11 12:58:40;;;;;;;6.63;1.70;;;16.10;99.90;;;;;;5130164;27;20695;-69
2022/10/11 13:01:11;;;;;;;6.73;1.90;;;16.10;99.90;;;;;;5129104;27;20244;-68
2022/10/11 13:03:40;;;;;;;5.57;1.60;;;16.20;99.90;;;;;;5109534;28;20189;-68
2022/10/11 13:06:14;;;;;;;6.20;2.27;;;16.20;99.90;;;;;;5109760;28;20202;-68